createdAt,value
2023-04-25T04:26:08.371Z,99074.03
2023-04-25T04:30:12.095Z,99074.03
2023-04-25T04:34:14.907Z,99068.91
2023-04-25T04:38:18.019Z,99065.44
2023-04-25T04:42:20.745Z,99069.84
2023-04-25T04:46:25.983Z,99076.72
2023-04-25T04:50:29.490Z,99079.84
2023-04-25T04:54:33.165Z,99080.03
2023-04-25T04:58:37.896Z,99082.81
2023-04-25T05:02:41.459Z,99076.16
2023-04-25T05:06:48.922Z,99083.38
2023-04-25T05:10:52.391Z,99079.22
2023-04-25T05:14:55.488Z,99077.94
2023-04-25T05:19:03.298Z,99078.41
2023-04-25T05:23:06.268Z,99077.22
2023-04-25T05:27:09.424Z,99085.25
2023-04-25T05:31:12.688Z,99086.41
2023-04-25T05:35:16.143Z,99086.50
2023-04-25T05:39:19.795Z,99076.50
2023-04-25T05:43:24.150Z,99087.31
2023-04-25T05:47:26.931Z,99080.59
2023-04-25T05:51:30.320Z,99098.16
2023-04-25T05:55:34.586Z,99104.53
2023-04-25T05:59:39.676Z,99101.44
2023-04-25T06:04:04.771Z,99097.25
2023-04-25T06:08:12.080Z,99097.12
2023-04-25T06:12:30.827Z,99103.69
2023-04-25T06:16:36.284Z,99107.13
2023-04-25T06:20:39.027Z,99115.13
2023-04-25T06:24:42.366Z,99123.19
2023-04-25T06:28:45.534Z,99115.94
2023-04-25T06:32:48.961Z,99125.91
2023-04-25T06:36:53.026Z,99129.91
2023-04-25T06:40:57.099Z,99130.59
2023-04-25T06:45:00.636Z,99126.63
2023-04-25T06:49:05.015Z,99131.19
2023-04-25T06:53:10.474Z,99136.75
2023-04-25T06:57:14.526Z,99130.38
2023-04-25T07:01:17.613Z,99135.97
2023-04-25T07:05:20.771Z,99144.34
2023-04-25T07:09:23.714Z,99141.00
2023-04-25T07:13:27.525Z,99139.47
2023-04-25T07:17:31.612Z,99134.91
2023-04-25T07:21:35.263Z,99129.94
2023-04-25T07:25:38.366Z,99133.41
2023-04-25T07:29:42.221Z,99136.78
2023-04-25T07:33:52.137Z,99136.88
2023-04-25T07:38:23.412Z,99131.78
2023-04-25T07:42:30.327Z,99135.53
2023-04-25T07:46:43.477Z,99146.72
2023-04-25T07:50:49.279Z,99144.50
2023-04-25T07:54:54.105Z,99135.94
2023-04-25T07:58:58.915Z,99134.63
2023-04-25T08:03:02.850Z,99137.09
2023-04-25T08:07:06.258Z,99141.38
2023-04-25T08:11:11.768Z,99143.84
2023-04-25T08:15:14.962Z,99145.56
2023-04-25T08:19:18.788Z,99145.56
2023-04-25T08:23:22.207Z,99134.19
2023-04-25T08:27:26.362Z,99143.94
2023-04-25T08:31:29.561Z,99147.44
2023-04-25T08:35:34.349Z,99146.00
2023-04-25T08:40:04.898Z,99146.84
2023-04-25T08:44:27.896Z,99146.38
2023-04-25T08:48:41.766Z,99141.94
2023-04-25T08:52:48.617Z,99140.34
2023-04-25T08:56:57.012Z,99140.59
2023-04-25T09:01:05.343Z,99152.88
2023-04-25T09:05:21.486Z,99151.81
2023-04-25T09:09:33.390Z,99141.28
2023-04-25T09:13:37.197Z,99143.34
2023-04-25T09:17:45.561Z,99153.34
2023-04-25T09:21:58.501Z,99154.25
2023-04-25T09:26:05.562Z,99143.88
2023-04-25T09:30:12.114Z,99146.06
2023-04-25T09:34:18.659Z,99149.25
2023-04-25T09:38:27.158Z,99150.13
2023-04-25T09:42:35.895Z,99161.44
2023-04-25T09:47:00.847Z,99148.47
2023-04-25T09:51:33.259Z,99149.06
2023-04-25T09:55:41.875Z,99154.28
2023-04-25T10:00:12.188Z,99151.44
2023-04-25T10:04:30.316Z,99142.22
2023-04-25T10:08:50.111Z,99139.34
2023-04-25T10:12:56.824Z,99134.56
2023-04-25T10:17:27.053Z,99136.09
2023-04-25T10:22:17.197Z,99135.72
2023-04-25T10:26:47.991Z,99133.91
2023-04-25T10:31:09.869Z,99135.53
2023-04-25T10:35:39.346Z,99130.31
2023-04-25T10:39:46.040Z,99132.28
2023-04-25T10:44:05.638Z,99132.81
2023-04-25T10:48:30.701Z,99136.69
2023-04-25T10:52:38.410Z,99143.91
2023-04-25T10:56:47.065Z,99143.34
2023-04-25T11:00:57.628Z,99152.34
2023-04-25T11:05:01.774Z,99159.81
2023-04-25T11:09:12.029Z,99165.19
2023-04-25T11:13:15.695Z,99170.06
2023-04-25T11:17:19.889Z,99172.22
2023-04-25T11:21:23.910Z,99164.09
2023-04-25T11:25:31.504Z,99169.63
2023-04-25T11:29:35.882Z,99174.09
2023-04-25T11:33:42.478Z,99181.06
2023-04-25T11:37:48.038Z,99183.78
2023-04-25T11:41:52.211Z,99183.19
2023-04-25T11:45:57.403Z,99178.53
2023-04-25T11:50:04.083Z,99195.94
2023-04-25T11:54:07.150Z,99184.72
2023-04-25T11:58:20.190Z,99186.37
2023-04-25T12:02:38.004Z,99194.31
2023-04-25T12:06:56.437Z,99203.69
2023-04-25T12:11:14.216Z,99207.84
2023-04-25T12:15:27.972Z,99198.09
2023-04-25T12:19:35.939Z,99200.09
2023-04-25T12:23:40.508Z,99211.44
2023-04-25T12:27:43.327Z,99213.59
2023-04-25T12:31:46.774Z,99209.84
2023-04-25T12:35:50.180Z,99215.56
2023-04-25T12:39:53.781Z,99216.63
2023-04-25T12:43:56.645Z,99207.81
2023-04-25T12:48:03.424Z,99204.84
2023-04-25T12:52:08.990Z,99208.34
2023-04-25T12:56:12.448Z,99192.81
2023-04-25T13:00:16.367Z,99196.31
2023-04-25T13:04:22.479Z,99199.91
2023-04-25T13:08:25.693Z,99191.34
2023-04-25T13:12:33.442Z,99182.38
2023-04-25T13:16:36.794Z,99183.19
2023-04-25T13:20:40.472Z,99178.03
2023-04-25T13:24:43.453Z,99180.09
2023-04-25T13:28:48.858Z,99172.28
2023-04-25T13:32:52.692Z,99164.00
2023-04-25T13:36:57.253Z,99165.34
2023-04-25T13:41:01.169Z,99172.81
2023-04-25T13:45:08.905Z,99174.22
2023-04-25T13:49:13.777Z,99172.16
2023-04-25T13:53:19.134Z,99170.19
2023-04-25T13:57:24.996Z,99165.44
2023-04-25T14:01:29.209Z,99161.44
2023-04-25T14:05:32.731Z,99159.81
2023-04-25T14:09:35.639Z,99155.66
2023-04-25T14:13:38.674Z,99155.56
2023-04-25T14:17:41.522Z,99153.28
2023-04-25T14:21:44.842Z,99155.53
2023-04-25T14:25:47.749Z,99157.16
2023-04-25T14:29:50.771Z,99163.13
2023-04-25T14:33:53.632Z,99151.53
2023-04-25T14:37:57.925Z,99154.69
2023-04-25T14:42:01.849Z,99141.63
2023-04-25T14:46:06.183Z,99153.13
2023-04-25T14:50:09.854Z,99149.63
2023-04-25T14:54:13.271Z,99149.59
2023-04-25T14:58:16.880Z,99148.19
2023-04-25T15:02:19.975Z,99144.50
2023-04-25T15:06:22.801Z,99146.78
2023-04-25T15:10:25.852Z,99162.84
2023-04-25T15:14:29.119Z,99148.63
2023-04-25T15:18:32.514Z,99156.19
2023-04-25T15:22:35.295Z,99150.25
